Estación Meteorológica Peña el Pijo (Robertgarden) [ 01/30/23 15:35:32 CET ]

Fecha Hora Presion(HPa) Temp (°C) Humedad % Rocio (°C) Viento ( m/s) Direccion Lluvia 1Hora(mm) Lluvia 24H(mm) LLuvia Total(mm)
2010-Jan-06 01:01:12 995.700 4.5 83 1.8         62.16
2010-Jan-06 02:03:17 995.600 4.8 85 2.5         62.16
2010-Jan-06 03:01:13 995.600 5.1 81 2.1         62.16
2010-Jan-06 04:01:13 995.600 4.8 78 1.2         62.16
2010-Jan-06 05:01:11 995.700 4.3 80 1.2         62.16
2010-Jan-06 06:01:13 995.700 3.9 77 0.2 1.6 ESE     62.16
2010-Jan-06 07:01:13 995.900 3.8 78 0.3         62.16
2010-Jan-06 08:01:14 996.500 3.8 79 0.5         62.16
2010-Jan-06 09:01:10 996.900 3.6 77 -0.1 0.8 SE     62.16
2010-Jan-06 10:01:14 998.000 4.4 73 -0.1         62.16
2010-Jan-06 11:01:17 998.400 4.4 67 -1.2         62.16
2010-Jan-06 12:01:15 998.400 6.8 61 -0.2         62.16
2010-Jan-06 13:01:13 997.500 7.9 55 -0.6 3.3 S     62.16
2010-Jan-06 14:01:13 997.200 7.7 56 -0.6 1.8 E     62.16
2010-Jan-06 15:01:13 997.000 7.9 55 -0.6         62.16
2010-Jan-06 16:01:13 996.800 6.9 57 -1.1         62.16
2010-Jan-06 17:01:23 997.000 4.9 63 -1.6         62.16
2010-Jan-06 18:01:12 996.900 3.9 69 -1.3         62.16
2010-Jan-06 19:01:14 997.000 3.3 72 -1.3         62.16
2010-Jan-06 20:01:12 996.800 1.5 77 -2.1         62.16
2010-Jan-06 21:01:17 996.500 0.3 83 -2.2         62.16
2010-Jan-06 22:01:13 996.200 0.4 85 -1.8         62.16
2010-Jan-06 23:01:14 995.900 1.1 87 -0.9         62.16

Temperatura Máxima:    Temperatura Mínima:
Presión Máxima:998.400 Hpa    Presión Mínima:995.600 Hpa


Volver